createdAt,value
2022-11-18T00:00:55.236Z,99442.91
2022-11-18T00:03:22.101Z,99448.22
2022-11-18T00:05:55.693Z,99444.53
2022-11-18T00:08:23.024Z,99447.19
2022-11-18T00:10:51.708Z,99450.47
2022-11-18T00:13:37.334Z,99449.44
2022-11-18T00:16:06.061Z,99449.44
2022-11-18T00:18:32.798Z,99445.75
2022-11-18T00:21:01.398Z,99453.47
2022-11-18T00:23:31.558Z,99456.13
2022-11-18T00:26:03.434Z,99465.16
2022-11-18T00:28:31.459Z,99471.25
2022-11-18T00:31:02.855Z,99472.31
2022-11-18T00:33:29.891Z,99477.81
2022-11-18T00:35:56.918Z,99486.00
2022-11-18T00:38:23.645Z,99487.63
2022-11-18T00:40:50.418Z,99484.34
2022-11-18T00:43:18.455Z,99487.81
2022-11-18T00:45:45.147Z,99489.88
2022-11-18T00:48:11.817Z,99496.44
2022-11-18T00:50:38.514Z,99511.75
2022-11-18T00:53:05.161Z,99508.47
2022-11-18T00:55:31.903Z,99507.66
2022-11-18T00:57:58.655Z,99512.16
2022-11-18T01:00:26.824Z,99513.41
2022-11-18T01:02:53.410Z,99511.56
2022-11-18T01:05:20.363Z,99509.94
2022-11-18T01:07:47.014Z,99513.00
2022-11-18T01:10:13.701Z,99516.47
2022-11-18T01:12:58.804Z,99519.34
2022-11-18T01:15:26.856Z,99524.63
2022-11-18T01:17:55.035Z,99517.72
2022-11-18T01:20:21.616Z,99521.19
2022-11-18T01:22:48.292Z,99519.34
2022-11-18T01:25:15.058Z,99526.50
2022-11-18T01:27:41.695Z,99519.56
2022-11-18T01:30:09.802Z,99527.28
2022-11-18T01:32:38.407Z,99523.63
2022-11-18T01:35:05.809Z,99527.91
2022-11-18T01:37:32.511Z,99524.44
2022-11-18T01:39:59.103Z,99530.16
2022-11-18T01:42:26.212Z,99525.44
2022-11-18T01:44:58.677Z,99529.13
2022-11-18T01:47:28.752Z,99529.94
2022-11-18T01:49:57.588Z,99538.94
2022-11-18T01:52:24.375Z,99540.97
2022-11-18T01:54:57.498Z,99542.59
2022-11-18T01:57:27.593Z,99546.28
2022-11-18T02:00:00.379Z,99547.09
2022-11-18T02:02:27.895Z,99551.38
2022-11-18T02:04:57.772Z,99556.69
2022-11-18T02:07:25.389Z,99559.34
2022-11-18T02:09:53.381Z,99567.88
2022-11-18T02:12:20.887Z,99566.88
2022-11-18T02:14:48.276Z,99566.06
2022-11-18T02:17:25.960Z,99571.16
2022-11-18T02:20:23.128Z,99570.94
2022-11-18T02:23:42.173Z,99572.78
2022-11-18T02:26:45.697Z,99571.16
2022-11-18T02:29:17.626Z,99579.31
2022-11-18T02:31:52.369Z,99579.31
2022-11-18T02:34:32.010Z,99584.88
2022-11-18T02:37:04.591Z,99576.91
2022-11-18T02:39:34.867Z,99587.50
2022-11-18T02:42:11.729Z,99582.22
2022-11-18T02:44:45.527Z,99583.22
2022-11-18T02:47:15.435Z,99592.00
2022-11-18T02:49:45.046Z,99594.88
2022-11-18T02:52:13.888Z,99593.44
2022-11-18T02:54:41.661Z,99601.59
2022-11-18T02:57:09.385Z,99596.53
2022-11-18T02:59:36.143Z,99591.22
2022-11-18T03:02:04.405Z,99597.53
2022-11-18T03:04:32.609Z,99600.59
2022-11-18T03:07:10.925Z,99605.09
2022-11-18T03:09:40.263Z,99609.56
2022-11-18T03:12:14.475Z,99617.75
2022-11-18T03:14:47.382Z,99622.63
2022-11-18T03:17:23.446Z,99617.13
2022-11-18T03:20:03.305Z,99622.25
2022-11-18T03:22:40.394Z,99629.19
2022-11-18T03:25:11.650Z,99630.78
2022-11-18T03:27:46.800Z,99632.41
2022-11-18T03:30:16.956Z,99634.25
2022-11-18T03:32:51.784Z,99630.56
2022-11-18T03:35:22.794Z,99636.50
2022-11-18T03:37:52.333Z,99640.78
2022-11-18T03:40:29.482Z,99643.00
2022-11-18T03:43:06.672Z,99648.13
2022-11-18T03:45:37.572Z,99657.72
2022-11-18T03:48:11.107Z,99655.69
2022-11-18T03:50:43.182Z,99658.34
2022-11-18T03:53:12.257Z,99656.25
2022-11-18T03:55:42.078Z,99666.69
2022-11-18T03:58:15.941Z,99665.03
2022-11-18T04:00:46.174Z,99666.88
2022-11-18T04:03:14.496Z,99667.50
2022-11-18T04:05:43.498Z,99668.50
2022-11-18T04:08:15.082Z,99672.81
2022-11-18T04:10:47.204Z,99685.06
2022-11-18T04:13:19.173Z,99686.69
2022-11-18T04:15:45.907Z,99685.66
2022-11-18T04:18:14.046Z,99685.66
2022-11-18T04:20:41.044Z,99692.63
2022-11-18T04:23:08.046Z,99696.88
2022-11-18T04:25:35.027Z,99698.50
2022-11-18T04:28:01.811Z,99700.16
2022-11-18T04:30:28.809Z,99698.09
2022-11-18T04:32:55.399Z,99698.09
2022-11-18T04:35:24.036Z,99704.03
2022-11-18T04:37:50.842Z,99706.69
2022-11-18T04:40:17.792Z,99706.44
2022-11-18T04:42:44.477Z,99709.94
2022-11-18T04:45:11.127Z,99718.72
2022-11-18T04:47:37.997Z,99722.19
2022-11-18T04:50:05.754Z,99720.53
2022-11-18T04:52:33.795Z,99721.38
2022-11-18T04:55:00.434Z,99729.31
2022-11-18T04:57:27.094Z,99728.31
2022-11-18T04:59:53.672Z,99732.81
2022-11-18T05:02:20.299Z,99736.28
2022-11-18T05:04:47.071Z,99740.97
2022-11-18T05:07:15.645Z,99745.47
2022-11-18T05:09:43.699Z,99738.31
2022-11-18T05:12:31.210Z,99739.13
2022-11-18T05:14:58.375Z,99748.72
2022-11-18T05:17:25.108Z,99748.72
2022-11-18T05:19:51.672Z,99751.19
2022-11-18T05:22:18.349Z,99750.38
2022-11-18T05:24:46.357Z,99761.00
2022-11-18T05:27:13.440Z,99762.63
2022-11-18T05:29:40.044Z,99758.94
2022-11-18T05:32:06.956Z,99758.13
2022-11-18T05:34:33.610Z,99756.28
2022-11-18T05:37:00.464Z,99759.97
2022-11-18T05:39:27.100Z,99773.25
2022-11-18T05:42:13.445Z,99774.25
2022-11-18T05:44:40.100Z,99778.56
2022-11-18T05:47:06.758Z,99782.84
2022-11-18T05:49:33.521Z,99784.69
2022-11-18T05:52:00.139Z,99791.63
2022-11-18T05:54:27.644Z,99792.44
2022-11-18T05:56:55.650Z,99789.56
2022-11-18T05:59:22.287Z,99786.91
2022-11-18T06:01:51.886Z,99792.44
2022-11-18T06:04:22.650Z,99795.31
2022-11-18T06:06:50.821Z,99799.78
2022-11-18T06:09:20.297Z,99798.16
2022-11-18T06:11:51.252Z,99797.34
2022-11-18T06:14:22.851Z,99807.34
2022-11-18T06:16:54.064Z,99817.13
2022-11-18T06:19:20.804Z,99810.41
2022-11-18T06:21:47.971Z,99813.47
2022-11-18T06:24:15.447Z,99821.63
2022-11-18T06:26:42.923Z,99830.66
2022-11-18T06:29:13.405Z,99825.53
2022-11-18T06:31:41.569Z,99831.25
2022-11-18T06:34:08.499Z,99838.63
2022-11-18T06:36:35.120Z,99846.16
2022-11-18T06:39:05.485Z,99854.50
2022-11-18T06:41:32.749Z,99849.63
2022-11-18T06:43:59.716Z,99845.13
2022-11-18T06:46:44.993Z,99860.22
2022-11-18T06:49:13.080Z,99857.34
2022-11-18T06:51:40.293Z,99858.78
2022-11-18T06:54:10.638Z,99870.41
2022-11-18T06:56:37.871Z,99866.53
2022-11-18T06:59:04.859Z,99870.59
2022-11-18T07:01:34.962Z,99877.72
2022-11-18T07:04:02.497Z,99878.13
2022-11-18T07:06:32.693Z,99889.97
2022-11-18T07:09:00.499Z,99892.22
2022-11-18T07:11:27.858Z,99894.63
2022-11-18T07:13:54.647Z,99903.00
2022-11-18T07:16:23.930Z,99906.03
2022-11-18T07:18:52.026Z,99906.22
2022-11-18T07:21:20.747Z,99909.91
2022-11-18T07:23:48.811Z,99916.22
2022-11-18T07:26:16.284Z,99911.50
2022-11-18T07:28:43.514Z,99917.22
2022-11-18T07:31:11.566Z,99926.38
2022-11-18T07:33:39.748Z,99927.38
2022-11-18T07:36:08.990Z,99930.66
2022-11-18T07:38:35.952Z,99934.13
2022-11-18T07:41:08.741Z,99933.31
2022-11-18T07:43:36.354Z,99938.59
2022-11-18T07:46:11.425Z,99943.91
2022-11-18T07:48:38.138Z,99945.75
2022-11-18T07:51:05.191Z,99946.75
2022-11-18T07:53:32.700Z,99960.00
2022-11-18T07:55:59.491Z,99961.84
2022-11-18T07:58:30.467Z,99968.97
2022-11-18T08:00:57.455Z,99977.16
2022-11-18T08:03:26.637Z,99976.09
2022-11-18T08:05:53.657Z,99978.56
2022-11-18T08:08:22.078Z,99987.34
2022-11-18T08:10:48.766Z,99978.38
2022-11-18T08:13:16.025Z,99984.31
2022-11-18T08:15:44.082Z,99988.16
2022-11-18T08:18:13.633Z,99989.16
2022-11-18T08:20:40.845Z,99999.78
2022-11-18T08:23:07.424Z,99992.81
2022-11-18T08:25:34.010Z,99993.66
2022-11-18T08:28:00.639Z,99994.28
2022-11-18T08:30:27.491Z,100003.88
2022-11-18T08:32:56.606Z,100002.88
2022-11-18T08:35:28.813Z,100008.78
2022-11-18T08:37:55.877Z,100013.06
2022-11-18T08:40:22.589Z,100016.34
2022-11-18T08:42:49.279Z,100015.97
2022-11-18T08:45:15.982Z,100021.88
2022-11-18T08:47:42.544Z,100018.22
2022-11-18T08:50:12.516Z,100009.88
2022-11-18T08:52:39.175Z,100022.13
2022-11-18T08:55:06.224Z,100020.91
2022-11-18T08:57:32.960Z,100019.06
2022-11-18T08:59:59.601Z,100027.66
2022-11-18T09:02:26.583Z,100028.88
2022-11-18T09:04:53.820Z,100027.88
2022-11-18T09:07:22.434Z,100033.00
2022-11-18T09:09:50.830Z,100038.09
2022-11-18T09:12:17.675Z,100040.34
2022-11-18T09:17:35.590Z,100045.28
2022-11-18T09:20:02.318Z,100053.88
2022-11-18T09:22:30.339Z,100047.53
2022-11-18T09:24:59.609Z,100053.47
2022-11-18T09:27:26.210Z,100050.81
2022-11-18T09:29:52.804Z,100056.75
2022-11-18T09:32:19.887Z,100052.88
2022-11-18T09:34:46.571Z,100060.44
2022-11-18T09:37:13.369Z,100063.72
2022-11-18T09:39:41.284Z,100070.44
2022-11-18T09:42:24.807Z,100070.88
2022-11-18T09:45:14.058Z,100079.47
2022-11-18T09:47:42.977Z,100077.22
2022-11-18T09:50:41.627Z,100076.84
2022-11-18T09:53:09.009Z,100081.56
2022-11-18T09:55:39.580Z,100083.00
2022-11-18T09:58:07.520Z,100096.69
2022-11-18T10:00:34.757Z,100091.81
2022-11-18T10:03:04.923Z,100094.06
2022-11-18T10:05:40.474Z,100105.31
2022-11-18T10:08:21.916Z,100101.22
2022-11-18T10:10:57.740Z,100100.84
2022-11-18T10:13:37.145Z,100104.94
2022-11-18T10:16:16.729Z,100107.00
2022-11-18T10:19:00.218Z,100114.56
2022-11-18T10:21:41.760Z,100114.81
2022-11-18T10:24:17.025Z,100116.28
2022-11-18T10:26:45.904Z,100115.22
2022-11-18T10:29:12.614Z,100117.69
2022-11-18T10:31:59.672Z,100118.13
2022-11-18T10:34:29.860Z,100126.50
2022-11-18T10:37:02.169Z,100129.38
2022-11-18T10:39:28.878Z,100123.03
2022-11-18T10:42:01.827Z,100129.78
2022-11-18T10:44:38.036Z,100137.38
2022-11-18T10:47:27.018Z,100137.78
2022-11-18T10:49:55.903Z,100138.41
2022-11-18T10:52:22.491Z,100133.09
2022-11-18T10:55:24.717Z,100134.50
2022-11-18T10:57:56.853Z,100132.66
2022-11-18T11:00:39.098Z,100139.25
2022-11-18T11:03:26.673Z,100134.56
2022-11-18T11:06:23.876Z,100136.78
2022-11-18T11:08:52.116Z,100144.56
2022-11-18T11:11:28.754Z,100146.81
2022-11-18T11:14:04.974Z,100137.44
2022-11-18T11:16:36.294Z,100146.03
2022-11-18T11:19:05.460Z,100149.09
2022-11-18T11:21:32.223Z,100147.88
2022-11-18T11:23:58.938Z,100148.47
2022-11-18T11:29:34.419Z,100150.34
2022-11-18T11:32:10.291Z,100150.13
2022-11-18T11:34:45.518Z,100154.84
2022-11-18T11:37:23.923Z,100156.47
2022-11-18T11:40:05.568Z,100160.56
2022-11-18T11:42:44.121Z,100153.19
2022-11-18T11:45:19.877Z,100156.50
2022-11-18T11:48:00.781Z,100150.94
2022-11-18T11:50:33.310Z,100148.09
2022-11-18T11:53:14.495Z,100154.03
2022-11-18T11:55:56.597Z,100157.09
2022-11-18T11:58:36.608Z,100154.66
2022-11-18T12:01:18.678Z,100158.94
2022-11-18T12:03:51.944Z,100154.22
2022-11-18T12:06:19.502Z,100156.69
2022-11-18T12:08:56.480Z,100166.31
2022-11-18T12:11:31.831Z,100167.94
2022-11-18T12:14:03.488Z,100175.72
2022-11-18T12:16:40.221Z,100170.41
2022-11-18T12:19:14.661Z,100164.28
2022-11-18T12:22:00.902Z,100169.97
2022-11-18T12:24:37.590Z,100172.66
2022-11-18T12:27:34.696Z,100170.81
2022-11-18T12:30:04.007Z,100173.47
2022-11-18T12:32:42.226Z,100174.09
2022-11-18T12:35:26.334Z,100179.22
2022-11-18T12:38:01.915Z,100184.53
2022-11-18T12:40:37.786Z,100180.81
2022-11-18T12:43:24.286Z,100174.47
2022-11-18T12:45:53.944Z,100175.31
2022-11-18T12:48:41.816Z,100182.25
2022-11-18T12:51:44.420Z,100184.94
2022-11-18T12:54:30.712Z,100188.41
2022-11-18T12:57:00.944Z,100187.38
2022-11-18T12:59:30.289Z,100198.66
2022-11-18T13:02:19.572Z,100199.25
2022-11-18T13:05:04.896Z,100197.41
2022-11-18T13:07:54.378Z,100202.09
2022-11-18T13:10:24.254Z,100204.75
2022-11-18T13:12:52.405Z,100204.56
2022-11-18T13:15:37.758Z,100203.53
2022-11-18T13:18:12.964Z,100205.38
2022-11-18T13:20:43.113Z,100207.84
2022-11-18T13:23:48.673Z,100209.50
2022-11-18T13:26:19.784Z,100210.50
2022-11-18T13:29:00.166Z,100211.97
2022-11-18T13:31:33.227Z,100215.63
2022-11-18T13:34:01.823Z,100216.47
2022-11-18T13:36:32.097Z,100224.44
2022-11-18T13:39:00.481Z,100220.53
2022-11-18T13:41:35.101Z,100217.66
2022-11-18T13:44:12.644Z,100218.09
2022-11-18T13:46:41.130Z,100216.03
2022-11-18T13:49:16.788Z,100223.63
2022-11-18T13:51:46.022Z,100220.53
2022-11-18T13:54:24.619Z,100228.31
2022-11-18T13:56:52.273Z,100228.94
2022-11-18T13:59:22.494Z,100230.38
2022-11-18T14:01:55.168Z,100227.72
2022-11-18T14:04:25.714Z,100237.31
2022-11-18T14:06:53.947Z,100232.00
2022-11-18T14:09:24.908Z,100228.53
2022-11-18T14:12:00.444Z,100231.78
2022-11-18T14:14:29.972Z,100238.13
2022-11-18T14:17:23.409Z,100230.16
2022-11-18T14:19:51.726Z,100244.28
2022-11-18T14:22:22.051Z,100239.78
2022-11-18T14:24:56.537Z,100240.78
2022-11-18T14:27:38.489Z,100246.13
2022-11-18T14:30:31.452Z,100253.09
2022-11-18T14:33:20.494Z,100259.44
2022-11-18T14:35:53.190Z,100260.25
2022-11-18T14:41:13.237Z,100260.06
2022-11-18T14:43:40.566Z,100262.50
2022-11-18T14:46:14.158Z,100266.00
2022-11-18T14:48:41.072Z,100264.34
2022-11-18T14:51:12.075Z,100261.28
2022-11-18T14:53:40.062Z,100268.47
2022-11-18T14:56:14.876Z,100259.66
2022-11-18T14:58:41.441Z,100258.00
2022-11-18T15:01:10.546Z,100262.72
2022-11-18T15:03:37.267Z,100262.09
2022-11-18T15:06:04.341Z,100266.00
2022-11-18T15:08:30.954Z,100273.16
2022-11-18T15:10:58.971Z,100275.19
2022-11-18T15:13:25.702Z,100288.94
2022-11-18T15:15:52.283Z,100281.75
2022-11-18T15:18:19.037Z,100288.06
2022-11-18T15:20:45.688Z,100295.66
2022-11-18T15:23:12.311Z,100298.94
2022-11-18T15:25:39.069Z,100298.31
2022-11-18T15:28:09.953Z,100308.94
2022-11-18T15:30:36.630Z,100304.84
2022-11-18T15:33:03.531Z,100306.09
2022-11-18T15:35:30.105Z,100304.63
2022-11-18T15:37:56.683Z,100308.50
2022-11-18T15:40:23.303Z,100305.63
2022-11-18T15:42:52.276Z,100308.69
2022-11-18T15:45:20.796Z,100306.81
2022-11-18T15:47:47.559Z,100309.91
2022-11-18T15:50:14.258Z,100303.31
2022-11-18T15:52:41.090Z,100311.53
2022-11-18T15:55:08.944Z,100309.88
2022-11-18T15:57:35.606Z,100310.28
2022-11-18T16:00:05.440Z,100316.19
2022-11-18T16:02:33.450Z,100312.50
2022-11-18T16:05:00.104Z,100317.97
2022-11-18T16:07:26.718Z,100319.78
2022-11-18T16:10:11.765Z,100331.41
2022-11-18T16:12:47.205Z,100326.88
2022-11-18T16:15:32.725Z,100334.59
2022-11-18T16:18:00.798Z,100325.56
2022-11-18T16:20:28.165Z,100326.16
2022-11-18T16:22:56.331Z,100336.94
2022-11-18T16:25:23.699Z,100341.59
2022-11-18T16:27:50.374Z,100340.31
2022-11-18T16:30:41.729Z,100344.78
2022-11-18T16:33:09.722Z,100348.66
2022-11-18T16:35:36.618Z,100345.75
2022-11-18T16:38:03.261Z,100350.44
2022-11-18T16:40:29.874Z,100351.63
2022-11-18T16:42:56.578Z,100351.22
2022-11-18T16:45:23.264Z,100356.47
2022-11-18T16:47:50.018Z,100355.78
2022-11-18T16:50:19.543Z,100364.31
2022-11-18T16:52:46.256Z,100366.16
2022-11-18T16:55:12.882Z,100370.63
2022-11-18T16:57:40.254Z,100373.94
2022-11-18T17:00:08.254Z,100373.94
2022-11-18T17:02:35.596Z,100365.97
2022-11-18T17:05:02.190Z,100374.72
2022-11-18T17:07:35.424Z,100378.03
2022-11-18T17:10:05.881Z,100378.84
2022-11-18T17:12:32.875Z,100379.47
2022-11-18T17:14:59.433Z,100382.78
2022-11-18T17:17:26.286Z,100382.38
2022-11-18T17:19:52.871Z,100385.66
2022-11-18T17:22:19.670Z,100382.63
2022-11-18T17:24:47.669Z,100393.06
2022-11-18T17:27:14.454Z,100399.00
2022-11-18T17:29:41.351Z,100396.97
2022-11-18T17:32:08.061Z,100400.25
2022-11-18T17:34:35.038Z,100409.22
2022-11-18T17:37:06.853Z,100407.78
2022-11-18T17:39:33.984Z,100415.75
2022-11-18T17:42:14.094Z,100417.59
2022-11-18T17:44:40.899Z,100430.03
2022-11-18T17:47:07.581Z,100427.19
2022-11-18T17:49:34.319Z,100432.69
2022-11-18T17:52:01.055Z,100435.16
2022-11-18T17:54:27.700Z,100436.00
2022-11-18T17:56:54.378Z,100444.13
2022-11-18T17:59:24.216Z,100445.78
2022-11-18T18:01:55.883Z,100449.25
2022-11-18T18:04:25.531Z,100450.47
2022-11-18T18:06:52.993Z,100459.44
2022-11-18T18:09:21.804Z,100460.66
2022-11-18T18:11:52.016Z,100464.84
2022-11-18T18:14:19.328Z,100463.41
2022-11-18T18:16:48.890Z,100463.41
2022-11-18T18:19:17.706Z,100468.50
2022-11-18T18:21:44.622Z,100472.75
2022-11-18T18:24:12.210Z,100471.31
2022-11-18T18:26:38.870Z,100478.00
2022-11-18T18:29:05.869Z,100475.28
2022-11-18T18:31:36.679Z,100478.09
2022-11-18T18:34:04.973Z,100482.81
2022-11-18T18:36:32.139Z,100476.84
2022-11-18T18:38:59.537Z,100492.94
2022-11-18T18:41:26.152Z,100486.16
2022-11-18T18:43:52.760Z,100489.13
2022-11-18T18:46:31.021Z,100488.50
2022-11-18T18:49:00.373Z,100495.81
2022-11-18T18:51:30.985Z,100504.81
2022-11-18T18:53:59.120Z,100498.84
2022-11-18T18:56:26.610Z,100503.50
2022-11-18T18:58:53.678Z,100512.84
2022-11-18T19:01:20.908Z,100506.06
2022-11-18T19:03:48.300Z,100513.59
2022-11-18T19:06:48.682Z,100519.44
2022-11-18T19:09:08.662Z,100512.03
2022-11-18T19:11:54.873Z,100515.69
2022-11-18T19:14:21.979Z,100516.50
2022-11-18T19:16:49.112Z,100517.88
2022-11-18T19:19:17.794Z,100518.91
2022-11-18T19:21:47.620Z,100520.44
2022-11-18T19:24:42.371Z,100516.16
2022-11-18T19:27:02.471Z,100520.97
2022-11-18T19:29:29.230Z,100530.31
2022-11-18T19:31:55.851Z,100531.84
2022-11-18T19:34:22.761Z,100533.06
2022-11-18T19:36:50.983Z,100541.06
2022-11-18T19:39:19.275Z,100542.78
2022-11-18T19:41:46.220Z,100544.34
2022-11-18T19:44:12.888Z,100552.81
2022-11-18T19:46:39.656Z,100554.00
2022-11-18T19:49:06.238Z,100560.81
2022-11-18T19:51:34.502Z,100571.97
2022-11-18T19:54:01.089Z,100573.22
2022-11-18T19:56:29.428Z,100570.91
2022-11-18T19:58:56.067Z,100578.56
2022-11-18T20:01:25.534Z,100581.94
2022-11-18T20:03:53.503Z,100579.31
2022-11-18T20:06:21.587Z,100592.22
2022-11-18T20:08:48.724Z,100585.94
2022-11-18T20:11:17.389Z,100595.53
2022-11-18T20:13:47.006Z,100595.53
2022-11-18T20:16:22.479Z,100594.25
2022-11-18T20:18:53.369Z,100601.69
2022-11-18T20:21:21.831Z,100605.56
2022-11-18T20:23:49.601Z,100603.63
2022-11-18T20:26:18.519Z,100608.25
2022-11-18T20:28:48.203Z,100614.22
2022-11-18T20:31:17.927Z,100613.28
2022-11-18T20:33:49.634Z,100615.59
2022-11-18T20:36:18.585Z,100617.25
2022-11-18T20:38:48.259Z,100621.22
2022-11-18T20:41:14.850Z,100615.28
2022-11-18T20:43:45.062Z,100618.91
2022-11-18T20:46:17.344Z,100620.94
2022-11-18T20:48:49.652Z,100624.06
2022-11-18T20:51:18.119Z,100628.06
2022-11-18T20:53:45.326Z,100631.41
2022-11-18T20:56:14.421Z,100632.72
2022-11-18T20:58:48.149Z,100632.41
2022-11-18T21:01:18.384Z,100635.88
2022-11-18T21:03:49.341Z,100640.50
2022-11-18T21:06:15.978Z,100640.03
2022-11-18T21:08:43.385Z,100643.81
2022-11-18T21:11:11.960Z,100652.91
2022-11-18T21:14:04.748Z,100652.91
2022-11-18T21:16:33.237Z,100666.47
2022-11-18T21:19:02.169Z,100666.00
2022-11-18T21:21:49.064Z,100673.56
2022-11-18T21:24:18.166Z,100680.84
2022-11-18T21:26:45.127Z,100684.28
2022-11-18T21:29:17.758Z,100688.13
2022-11-18T21:31:52.687Z,100687.44
2022-11-18T21:34:20.020Z,100689.09
2022-11-18T21:36:51.653Z,100686.63
2022-11-18T21:39:21.538Z,100683.13
2022-11-18T21:41:55.605Z,100682.16
2022-11-18T21:44:23.643Z,100680.34
2022-11-18T21:46:52.023Z,100688.59
2022-11-18T21:49:19.401Z,100691.56
2022-11-18T21:51:46.309Z,100695.53
2022-11-18T21:54:15.765Z,100702.28
2022-11-18T21:56:42.885Z,100700.47
2022-11-18T21:59:09.528Z,100704.09
2022-11-18T22:01:36.210Z,100716.13
2022-11-18T22:04:05.823Z,100721.75
2022-11-18T22:06:34.361Z,100720.41
2022-11-18T22:09:02.108Z,100721.91
2022-11-18T22:11:31.976Z,100726.31
2022-11-18T22:13:59.773Z,100725.94
2022-11-18T22:16:27.362Z,100728.41
2022-11-18T22:18:59.249Z,100728.69
2022-11-18T22:21:30.733Z,100725.28
2022-11-18T22:23:58.583Z,100723.25
2022-11-18T22:26:25.506Z,100723.25
2022-11-18T22:28:53.622Z,100717.31
2022-11-18T22:31:21.772Z,100725.03
2022-11-18T22:33:51.021Z,100724.84
2022-11-18T22:36:20.066Z,100722.22
2022-11-18T22:38:48.842Z,100730.78
2022-11-18T22:41:36.904Z,100729.28
2022-11-18T22:44:07.755Z,100737.34
2022-11-18T22:46:35.054Z,100728.91
2022-11-18T22:49:02.034Z,100737.00
2022-11-18T22:51:29.400Z,100735.84
2022-11-18T22:54:22.962Z,100739.47
2022-11-18T22:56:44.241Z,100740.44
2022-11-18T22:59:12.327Z,100745.44
2022-11-18T23:01:39.705Z,100744.75
2022-11-18T23:04:06.879Z,100748.69
2022-11-18T23:06:33.782Z,100744.53
2022-11-18T23:09:02.699Z,100752.47
2022-11-18T23:11:49.225Z,100757.09
2022-11-18T23:14:16.133Z,100759.88
2022-11-18T23:16:43.143Z,100758.47
2022-11-18T23:19:13.026Z,100762.78
2022-11-18T23:21:40.431Z,100762.78
2022-11-18T23:24:13.188Z,100766.25
2022-11-18T23:26:39.954Z,100767.22
2022-11-18T23:29:06.714Z,100762.56
2022-11-18T23:31:35.852Z,100767.16
2022-11-18T23:34:02.712Z,100775.75
2022-11-18T23:36:29.603Z,100772.16
2022-11-18T23:38:56.356Z,100783.69
2022-11-18T23:41:24.712Z,100789.47
2022-11-18T23:43:52.161Z,100786.66
2022-11-18T23:46:19.247Z,100792.63
2022-11-18T23:48:46.537Z,100798.63
2022-11-18T23:51:15.495Z,100805.97
2022-11-18T23:53:43.058Z,100803.31
2022-11-18T23:56:12.167Z,100799.84
2022-11-18T23:58:40.872Z,100794.22
